sensor_id;sensor_type;location;lat;lon;timestamp;P1;durP1;ratioP1;P2;durP2;ratioP2
3677;SDS011;1855;50.934;6.958;2023-12-29T00:01:29;3.05;;;1.00;;
3677;SDS011;1855;50.934;6.958;2023-12-29T00:03:55;3.17;;;1.10;;
3677;SDS011;1855;50.934;6.958;2023-12-29T00:06:22;1.70;;;1.00;;
3677;SDS011;1855;50.934;6.958;2023-12-29T00:08:49;2.20;;;1.00;;
3677;SDS011;1855;50.934;6.958;2023-12-29T00:11:16;2.13;;;1.23;;
3677;SDS011;1855;50.934;6.958;2023-12-29T00:13:45;2.05;;;1.25;;
3677;SDS011;1855;50.934;6.958;2023-12-29T00:16:11;2.00;;;0.90;;
3677;SDS011;1855;50.934;6.958;2023-12-29T00:18:38;3.28;;;1.20;;
3677;SDS011;1855;50.934;6.958;2023-12-29T00:21:05;2.60;;;1.25;;
3677;SDS011;1855;50.934;6.958;2023-12-29T00:23:32;3.15;;;1.20;;
3677;SDS011;1855;50.934;6.958;2023-12-29T00:25:59;3.00;;;1.27;;
3677;SDS011;1855;50.934;6.958;2023-12-29T00:28:26;2.13;;;1.10;;
3677;SDS011;1855;50.934;6.958;2023-12-29T00:30:54;2.15;;;0.90;;
3677;SDS011;1855;50.934;6.958;2023-12-29T00:33:20;3.55;;;1.10;;
3677;SDS011;1855;50.934;6.958;2023-12-29T00:35:47;2.58;;;1.20;;
3677;SDS011;1855;50.934;6.958;2023-12-29T00:38:14;3.33;;;1.20;;
3677;SDS011;1855;50.934;6.958;2023-12-29T00:40:40;4.10;;;1.20;;
3677;SDS011;1855;50.934;6.958;2023-12-29T00:43:07;2.17;;;1.05;;
3677;SDS011;1855;50.934;6.958;2023-12-29T00:45:34;4.40;;;1.20;;
3677;SDS011;1855;50.934;6.958;2023-12-29T00:48:02;3.78;;;1.38;;
3677;SDS011;1855;50.934;6.958;2023-12-29T00:50:29;2.60;;;1.23;;
3677;SDS011;1855;50.934;6.958;2023-12-29T00:52:56;2.85;;;1.23;;
3677;SDS011;1855;50.934;6.958;2023-12-29T00:55:23;4.03;;;1.20;;
3677;SDS011;1855;50.934;6.958;2023-12-29T00:57:49;3.65;;;1.23;;
3677;SDS011;1855;50.934;6.958;2023-12-29T01:00:16;3.17;;;1.30;;
3677;SDS011;1855;50.934;6.958;2023-12-29T01:02:43;3.13;;;1.17;;
3677;SDS011;1855;50.934;6.958;2023-12-29T01:05:12;3.78;;;1.30;;
3677;SDS011;1855;50.934;6.958;2023-12-29T01:07:41;3.22;;;1.40;;
3677;SDS011;1855;50.934;6.958;2023-12-29T01:10:08;4.43;;;1.45;;
3677;SDS011;1855;50.934;6.958;2023-12-29T01:12:35;4.32;;;1.35;;
3677;SDS011;1855;50.934;6.958;2023-12-29T01:15:02;3.63;;;1.35;;
3677;SDS011;1855;50.934;6.958;2023-12-29T01:17:29;3.40;;;1.50;;
3677;SDS011;1855;50.934;6.958;2023-12-29T01:19:56;2.50;;;1.50;;
3677;SDS011;1855;50.934;6.958;2023-12-29T01:22:24;4.60;;;1.42;;
3677;SDS011;1855;50.934;6.958;2023-12-29T01:24:50;6.00;;;1.88;;
3677;SDS011;1855;50.934;6.958;2023-12-29T01:27:17;2.25;;;1.00;;
3677;SDS011;1855;50.934;6.958;2023-12-29T01:29:44;2.70;;;1.60;;
3677;SDS011;1855;50.934;6.958;2023-12-29T01:32:10;3.78;;;1.50;;
3677;SDS011;1855;50.934;6.958;2023-12-29T01:34:37;4.60;;;1.70;;
3677;SDS011;1855;50.934;6.958;2023-12-29T01:37:04;4.70;;;1.60;;
3677;SDS011;1855;50.934;6.958;2023-12-29T01:39:32;3.55;;;1.50;;
3677;SDS011;1855;50.934;6.958;2023-12-29T01:41:59;4.43;;;1.70;;
3677;SDS011;1855;50.934;6.958;2023-12-29T01:44:26;2.80;;;1.42;;
3677;SDS011;1855;50.934;6.958;2023-12-29T01:46:53;2.45;;;1.20;;
3677;SDS011;1855;50.934;6.958;2023-12-29T01:49:21;3.40;;;1.30;;
3677;SDS011;1855;50.934;6.958;2023-12-29T01:51:49;3.88;;;1.40;;
3677;SDS011;1855;50.934;6.958;2023-12-29T01:54:17;4.33;;;1.63;;
3677;SDS011;1855;50.934;6.958;2023-12-29T01:56:47;4.28;;;1.60;;
3677;SDS011;1855;50.934;6.958;2023-12-29T01:59:15;3.90;;;1.50;;
3677;SDS011;1855;50.934;6.958;2023-12-29T02:01:42;3.33;;;1.35;;
3677;SDS011;1855;50.934;6.958;2023-12-29T02:04:10;4.35;;;1.45;;
3677;SDS011;1855;50.934;6.958;2023-12-29T02:06:39;3.88;;;1.35;;
3677;SDS011;1855;50.934;6.958;2023-12-29T02:09:06;3.58;;;1.30;;
3677;SDS011;1855;50.934;6.958;2023-12-29T02:11:33;2.80;;;1.70;;
3677;SDS011;1855;50.934;6.958;2023-12-29T02:14:01;3.28;;;1.50;;
3677;SDS011;1855;50.934;6.958;2023-12-29T02:16:30;3.47;;;1.70;;
3677;SDS011;1855;50.934;6.958;2023-12-29T02:19:04;2.40;;;1.20;;
3677;SDS011;1855;50.934;6.958;2023-12-29T02:21:40;4.72;;;1.70;;
3677;SDS011;1855;50.934;6.958;2023-12-29T02:24:07;3.80;;;1.35;;
3677;SDS011;1855;50.934;6.958;2023-12-29T02:26:35;3.20;;;1.50;;
3677;SDS011;1855;50.934;6.958;2023-12-29T02:29:04;3.90;;;1.70;;
3677;SDS011;1855;50.934;6.958;2023-12-29T02:31:35;4.40;;;1.60;;
3677;SDS011;1855;50.934;6.958;2023-12-29T02:34:06;3.45;;;1.60;;
3677;SDS011;1855;50.934;6.958;2023-12-29T02:36:36;4.37;;;1.90;;
3677;SDS011;1855;50.934;6.958;2023-12-29T02:39:07;2.90;;;1.20;;
3677;SDS011;1855;50.934;6.958;2023-12-29T02:41:36;5.70;;;1.70;;
3677;SDS011;1855;50.934;6.958;2023-12-29T02:44:03;3.20;;;1.30;;
3677;SDS011;1855;50.934;6.958;2023-12-29T02:46:30;5.78;;;1.48;;
3677;SDS011;1855;50.934;6.958;2023-12-29T02:48:57;2.83;;;1.48;;
3677;SDS011;1855;50.934;6.958;2023-12-29T02:51:24;5.25;;;1.80;;
3677;SDS011;1855;50.934;6.958;2023-12-29T02:53:51;3.30;;;1.35;;
3677;SDS011;1855;50.934;6.958;2023-12-29T02:56:18;3.55;;;1.30;;
3677;SDS011;1855;50.934;6.958;2023-12-29T02:58:46;4.90;;;1.00;;
3677;SDS011;1855;50.934;6.958;2023-12-29T03:01:13;2.97;;;1.20;;
3677;SDS011;1855;50.934;6.958;2023-12-29T03:03:40;5.80;;;1.70;;
3677;SDS011;1855;50.934;6.958;2023-12-29T03:06:06;4.80;;;1.50;;
3677;SDS011;1855;50.934;6.958;2023-12-29T03:08:33;4.80;;;1.40;;
3677;SDS011;1855;50.934;6.958;2023-12-29T03:11:00;3.30;;;1.20;;
3677;SDS011;1855;50.934;6.958;2023-12-29T03:13:26;3.53;;;1.40;;
3677;SDS011;1855;50.934;6.958;2023-12-29T03:15:54;2.45;;;1.10;;
3677;SDS011;1855;50.934;6.958;2023-12-29T03:18:21;3.60;;;1.50;;
3677;SDS011;1855;50.934;6.958;2023-12-29T03:20:48;3.40;;;1.30;;
3677;SDS011;1855;50.934;6.958;2023-12-29T03:23:15;4.60;;;1.42;;
3677;SDS011;1855;50.934;6.958;2023-12-29T03:25:41;3.25;;;1.30;;
3677;SDS011;1855;50.934;6.958;2023-12-29T03:28:08;5.32;;;1.73;;
3677;SDS011;1855;50.934;6.958;2023-12-29T03:30:35;7.60;;;1.70;;
3677;SDS011;1855;50.934;6.958;2023-12-29T03:33:03;4.32;;;1.00;;
3677;SDS011;1855;50.934;6.958;2023-12-29T03:35:30;3.95;;;1.50;;
3677;SDS011;1855;50.934;6.958;2023-12-29T03:37:57;3.42;;;1.20;;
3677;SDS011;1855;50.934;6.958;2023-12-29T03:40:24;4.47;;;1.30;;
3677;SDS011;1855;50.934;6.958;2023-12-29T03:42:50;4.35;;;1.50;;
3677;SDS011;1855;50.934;6.958;2023-12-29T03:45:17;2.80;;;1.10;;
3677;SDS011;1855;50.934;6.958;2023-12-29T03:47:44;3.50;;;1.20;;
3677;SDS011;1855;50.934;6.958;2023-12-29T03:50:12;4.68;;;1.48;;
3677;SDS011;1855;50.934;6.958;2023-12-29T03:52:38;4.93;;;1.20;;
3677;SDS011;1855;50.934;6.958;2023-12-29T03:55:05;3.60;;;1.20;;
3677;SDS011;1855;50.934;6.958;2023-12-29T03:57:33;4.70;;;1.20;;
3677;SDS011;1855;50.934;6.958;2023-12-29T03:59:59;3.10;;;1.20;;
3677;SDS011;1855;50.934;6.958;2023-12-29T04:02:26;3.58;;;1.20;;
3677;SDS011;1855;50.934;6.958;2023-12-29T04:04:54;3.10;;;1.30;;
3677;SDS011;1855;50.934;6.958;2023-12-29T04:07:22;3.13;;;1.27;;
3677;SDS011;1855;50.934;6.958;2023-12-29T04:09:48;4.38;;;1.20;;
3677;SDS011;1855;50.934;6.958;2023-12-29T04:12:15;4.25;;;1.20;;
3677;SDS011;1855;50.934;6.958;2023-12-29T04:14:42;2.90;;;1.20;;
3677;SDS011;1855;50.934;6.958;2023-12-29T04:17:09;2.90;;;1.33;;
3677;SDS011;1855;50.934;6.958;2023-12-29T04:19:39;5.10;;;1.60;;
3677;SDS011;1855;50.934;6.958;2023-12-29T04:22:06;4.05;;;1.20;;
3677;SDS011;1855;50.934;6.958;2023-12-29T04:24:34;6.45;;;1.40;;
3677;SDS011;1855;50.934;6.958;2023-12-29T04:27:04;4.50;;;1.45;;
3677;SDS011;1855;50.934;6.958;2023-12-29T04:29:31;4.72;;;1.35;;
3677;SDS011;1855;50.934;6.958;2023-12-29T04:31:58;3.20;;;1.30;;
3677;SDS011;1855;50.934;6.958;2023-12-29T04:34:24;3.30;;;1.20;;
3677;SDS011;1855;50.934;6.958;2023-12-29T04:36:51;2.90;;;1.25;;
3677;SDS011;1855;50.934;6.958;2023-12-29T04:39:18;4.38;;;1.40;;
3677;SDS011;1855;50.934;6.958;2023-12-29T04:41:46;5.07;;;1.20;;
3677;SDS011;1855;50.934;6.958;2023-12-29T04:44:13;2.73;;;1.10;;
3677;SDS011;1855;50.934;6.958;2023-12-29T04:46:39;4.15;;;1.10;;
3677;SDS011;1855;50.934;6.958;2023-12-29T04:49:06;2.33;;;1.10;;
3677;SDS011;1855;50.934;6.958;2023-12-29T04:51:33;3.95;;;1.38;;
3677;SDS011;1855;50.934;6.958;2023-12-29T04:54:00;5.72;;;1.40;;
3677;SDS011;1855;50.934;6.958;2023-12-29T04:56:27;2.67;;;1.00;;
3677;SDS011;1855;50.934;6.958;2023-12-29T04:58:55;2.65;;;1.30;;
3677;SDS011;1855;50.934;6.958;2023-12-29T05:01:22;5.05;;;1.70;;
3677;SDS011;1855;50.934;6.958;2023-12-29T05:03:48;5.35;;;1.30;;
3677;SDS011;1855;50.934;6.958;2023-12-29T05:06:15;3.63;;;1.27;;
3677;SDS011;1855;50.934;6.958;2023-12-29T05:08:42;3.50;;;1.20;;
3677;SDS011;1855;50.934;6.958;2023-12-29T05:11:09;2.20;;;1.00;;
3677;SDS011;1855;50.934;6.958;2023-12-29T05:13:35;3.58;;;1.38;;
3677;SDS011;1855;50.934;6.958;2023-12-29T05:16:03;5.20;;;1.50;;
3677;SDS011;1855;50.934;6.958;2023-12-29T05:18:31;4.70;;;1.50;;
3677;SDS011;1855;50.934;6.958;2023-12-29T05:20:58;4.40;;;1.30;;
3677;SDS011;1855;50.934;6.958;2023-12-29T05:23:24;4.60;;;1.20;;
3677;SDS011;1855;50.934;6.958;2023-12-29T05:25:51;3.70;;;1.08;;
3677;SDS011;1855;50.934;6.958;2023-12-29T05:28:18;3.60;;;1.20;;
3677;SDS011;1855;50.934;6.958;2023-12-29T05:30:45;3.08;;;1.10;;
3677;SDS011;1855;50.934;6.958;2023-12-29T05:33:13;5.00;;;1.20;;
3677;SDS011;1855;50.934;6.958;2023-12-29T05:35:39;3.45;;;1.30;;
3677;SDS011;1855;50.934;6.958;2023-12-29T05:38:06;3.60;;;1.30;;
3677;SDS011;1855;50.934;6.958;2023-12-29T05:40:33;4.60;;;1.20;;
3677;SDS011;1855;50.934;6.958;2023-12-29T05:43:00;4.30;;;1.10;;
3677;SDS011;1855;50.934;6.958;2023-12-29T05:45:27;3.38;;;1.40;;
3677;SDS011;1855;50.934;6.958;2023-12-29T05:47:53;6.15;;;1.20;;
3677;SDS011;1855;50.934;6.958;2023-12-29T05:50:21;3.33;;;1.30;;
3677;SDS011;1855;50.934;6.958;2023-12-29T05:52:48;3.20;;;1.10;;
3677;SDS011;1855;50.934;6.958;2023-12-29T05:55:16;2.80;;;1.00;;
3677;SDS011;1855;50.934;6.958;2023-12-29T05:57:44;4.10;;;1.58;;
3677;SDS011;1855;50.934;6.958;2023-12-29T06:00:11;4.47;;;1.05;;
3677;SDS011;1855;50.934;6.958;2023-12-29T06:02:39;3.40;;;1.40;;
3677;SDS011;1855;50.934;6.958;2023-12-29T06:05:07;3.17;;;1.10;;
3677;SDS011;1855;50.934;6.958;2023-12-29T06:07:36;2.67;;;0.80;;
3677;SDS011;1855;50.934;6.958;2023-12-29T06:10:03;3.80;;;1.30;;
3677;SDS011;1855;50.934;6.958;2023-12-29T06:12:31;2.35;;;1.20;;
3677;SDS011;1855;50.934;6.958;2023-12-29T06:14:57;3.40;;;1.15;;
3677;SDS011;1855;50.934;6.958;2023-12-29T06:17:23;4.38;;;1.60;;
3677;SDS011;1855;50.934;6.958;2023-12-29T06:19:50;4.53;;;1.30;;
3677;SDS011;1855;50.934;6.958;2023-12-29T06:22:17;3.05;;;1.20;;
3677;SDS011;1855;50.934;6.958;2023-12-29T06:24:46;4.88;;;1.45;;
3677;SDS011;1855;50.934;6.958;2023-12-29T06:27:13;3.05;;;1.58;;
3677;SDS011;1855;50.934;6.958;2023-12-29T06:29:40;3.83;;;1.27;;
3677;SDS011;1855;50.934;6.958;2023-12-29T06:32:07;3.78;;;0.98;;
3677;SDS011;1855;50.934;6.958;2023-12-29T06:34:34;2.65;;;1.10;;
3677;SDS011;1855;50.934;6.958;2023-12-29T06:37:01;3.92;;;1.27;;
3677;SDS011;1855;50.934;6.958;2023-12-29T06:39:28;3.00;;;1.30;;
3677;SDS011;1855;50.934;6.958;2023-12-29T06:41:56;3.87;;;1.10;;
3677;SDS011;1855;50.934;6.958;2023-12-29T06:44:23;3.83;;;1.20;;
3677;SDS011;1855;50.934;6.958;2023-12-29T06:46:49;2.85;;;1.30;;
3677;SDS011;1855;50.934;6.958;2023-12-29T06:49:16;3.40;;;1.15;;
3677;SDS011;1855;50.934;6.958;2023-12-29T06:51:43;2.80;;;1.20;;
3677;SDS011;1855;50.934;6.958;2023-12-29T06:54:10;5.72;;;1.45;;
3677;SDS011;1855;50.934;6.958;2023-12-29T06:56:37;3.63;;;1.45;;
3677;SDS011;1855;50.934;6.958;2023-12-29T06:59:05;4.30;;;1.40;;
3677;SDS011;1855;50.934;6.958;2023-12-29T07:01:33;4.72;;;1.30;;
3677;SDS011;1855;50.934;6.958;2023-12-29T07:03:59;3.10;;;1.13;;
3677;SDS011;1855;50.934;6.958;2023-12-29T07:06:26;3.57;;;1.20;;
3677;SDS011;1855;50.934;6.958;2023-12-29T07:08:53;3.03;;;1.00;;
3677;SDS011;1855;50.934;6.958;2023-12-29T07:11:20;4.40;;;1.20;;
3677;SDS011;1855;50.934;6.958;2023-12-29T07:13:47;3.45;;;1.27;;
3677;SDS011;1855;50.934;6.958;2023-12-29T07:16:15;3.40;;;0.90;;
3677;SDS011;1855;50.934;6.958;2023-12-29T07:18:44;2.30;;;1.00;;
3677;SDS011;1855;50.934;6.958;2023-12-29T07:21:11;4.70;;;1.30;;
3677;SDS011;1855;50.934;6.958;2023-12-29T07:23:38;3.28;;;1.10;;
3677;SDS011;1855;50.934;6.958;2023-12-29T07:26:05;3.65;;;1.02;;
3677;SDS011;1855;50.934;6.958;2023-12-29T07:28:32;4.10;;;1.40;;
3677;SDS011;1855;50.934;6.958;2023-12-29T07:30:59;3.90;;;1.20;;
3677;SDS011;1855;50.934;6.958;2023-12-29T07:33:27;3.53;;;1.10;;
3677;SDS011;1855;50.934;6.958;2023-12-29T07:35:54;2.67;;;1.00;;
3677;SDS011;1855;50.934;6.958;2023-12-29T07:38:21;2.30;;;1.00;;
3677;SDS011;1855;50.934;6.958;2023-12-29T07:40:48;2.92;;;1.10;;
3677;SDS011;1855;50.934;6.958;2023-12-29T07:43:14;1.83;;;0.90;;
3677;SDS011;1855;50.934;6.958;2023-12-29T07:45:41;1.63;;;0.82;;
3677;SDS011;1855;50.934;6.958;2023-12-29T07:48:08;2.00;;;1.00;;
3677;SDS011;1855;50.934;6.958;2023-12-29T07:50:36;4.13;;;1.00;;
3677;SDS011;1855;50.934;6.958;2023-12-29T07:53:03;2.67;;;0.90;;
3677;SDS011;1855;50.934;6.958;2023-12-29T07:55:31;3.40;;;1.15;;
3677;SDS011;1855;50.934;6.958;2023-12-29T07:57:57;2.83;;;1.10;;
3677;SDS011;1855;50.934;6.958;2023-12-29T08:00:24;3.15;;;0.80;;
3677;SDS011;1855;50.934;6.958;2023-12-29T08:02:51;3.90;;;1.00;;
3677;SDS011;1855;50.934;6.958;2023-12-29T08:05:18;2.10;;;1.30;;
3677;SDS011;1855;50.934;6.958;2023-12-29T08:07:46;2.20;;;0.90;;
3677;SDS011;1855;50.934;6.958;2023-12-29T08:10:13;3.83;;;1.00;;
3677;SDS011;1855;50.934;6.958;2023-12-29T08:12:40;2.92;;;1.10;;
3677;SDS011;1855;50.934;6.958;2023-12-29T08:15:07;2.90;;;1.30;;
3677;SDS011;1855;50.934;6.958;2023-12-29T08:17:34;3.67;;;1.40;;
3677;SDS011;1855;50.934;6.958;2023-12-29T08:20:00;4.25;;;1.30;;
3677;SDS011;1855;50.934;6.958;2023-12-29T08:22:29;3.22;;;1.27;;
3677;SDS011;1855;50.934;6.958;2023-12-29T08:24:58;5.10;;;1.48;;
3677;SDS011;1855;50.934;6.958;2023-12-29T08:27:25;3.75;;;1.50;;
3677;SDS011;1855;50.934;6.958;2023-12-29T08:29:52;5.20;;;1.42;;
3677;SDS011;1855;50.934;6.958;2023-12-29T08:32:19;4.60;;;1.70;;
3677;SDS011;1855;50.934;6.958;2023-12-29T08:34:46;4.37;;;1.90;;
3677;SDS011;1855;50.934;6.958;2023-12-29T08:37:13;4.10;;;2.00;;
3677;SDS011;1855;50.934;6.958;2023-12-29T08:39:44;7.00;;;2.05;;
3677;SDS011;1855;50.934;6.958;2023-12-29T08:42:13;4.07;;;1.90;;
3677;SDS011;1855;50.934;6.958;2023-12-29T08:44:39;3.05;;;1.80;;
3677;SDS011;1855;50.934;6.958;2023-12-29T08:47:06;6.00;;;2.10;;
3677;SDS011;1855;50.934;6.958;2023-12-29T08:49:34;2.72;;;1.70;;
3677;SDS011;1855;50.934;6.958;2023-12-29T08:52:01;4.15;;;1.77;;
3677;SDS011;1855;50.934;6.958;2023-12-29T08:54:28;4.93;;;2.58;;
3677;SDS011;1855;50.934;6.958;2023-12-29T08:56:54;5.57;;;2.03;;
3677;SDS011;1855;50.934;6.958;2023-12-29T08:59:22;3.13;;;2.35;;
3677;SDS011;1855;50.934;6.958;2023-12-29T09:01:49;5.17;;;2.20;;
3677;SDS011;1855;50.934;6.958;2023-12-29T09:04:16;6.50;;;2.03;;
3677;SDS011;1855;50.934;6.958;2023-12-29T09:06:43;4.90;;;2.13;;
3677;SDS011;1855;50.934;6.958;2023-12-29T09:09:09;3.78;;;1.77;;
3677;SDS011;1855;50.934;6.958;2023-12-29T09:11:38;4.95;;;2.10;;
3677;SDS011;1855;50.934;6.958;2023-12-29T09:14:04;4.30;;;1.83;;
3677;SDS011;1855;50.934;6.958;2023-12-29T09:16:34;4.28;;;1.90;;
3677;SDS011;1855;50.934;6.958;2023-12-29T09:19:02;4.30;;;2.05;;
3677;SDS011;1855;50.934;6.958;2023-12-29T09:21:28;4.47;;;2.03;;
3677;SDS011;1855;50.934;6.958;2023-12-29T09:23:55;5.60;;;2.70;;
3677;SDS011;1855;50.934;6.958;2023-12-29T09:26:23;5.90;;;2.70;;
3677;SDS011;1855;50.934;6.958;2023-12-29T09:28:50;6.72;;;2.45;;
3677;SDS011;1855;50.934;6.958;2023-12-29T09:31:16;7.72;;;2.70;;
3677;SDS011;1855;50.934;6.958;2023-12-29T09:33:45;3.45;;;2.30;;
3677;SDS011;1855;50.934;6.958;2023-12-29T09:36:11;5.72;;;2.50;;
3677;SDS011;1855;50.934;6.958;2023-12-29T09:38:38;6.10;;;2.10;;
3677;SDS011;1855;50.934;6.958;2023-12-29T09:41:09;6.25;;;2.40;;
3677;SDS011;1855;50.934;6.958;2023-12-29T09:43:39;6.00;;;1.92;;
3677;SDS011;1855;50.934;6.958;2023-12-29T09:46:07;4.15;;;1.70;;
3677;SDS011;1855;50.934;6.958;2023-12-29T09:48:36;4.75;;;1.85;;
3677;SDS011;1855;50.934;6.958;2023-12-29T09:51:04;3.70;;;1.95;;
3677;SDS011;1855;50.934;6.958;2023-12-29T09:53:32;4.32;;;2.00;;
3677;SDS011;1855;50.934;6.958;2023-12-29T09:56:01;5.57;;;2.22;;
3677;SDS011;1855;50.934;6.958;2023-12-29T09:58:30;4.78;;;1.80;;
3677;SDS011;1855;50.934;6.958;2023-12-29T10:00:57;4.00;;;1.30;;
3677;SDS011;1855;50.934;6.958;2023-12-29T10:03:24;3.10;;;1.30;;
3677;SDS011;1855;50.934;6.958;2023-12-29T10:05:51;3.40;;;1.40;;
3677;SDS011;1855;50.934;6.958;2023-12-29T10:08:24;3.10;;;1.20;;
3677;SDS011;1855;50.934;6.958;2023-12-29T10:10:51;4.88;;;1.40;;
3677;SDS011;1855;50.934;6.958;2023-12-29T10:13:20;2.60;;;1.20;;
3677;SDS011;1855;50.934;6.958;2023-12-29T10:15:49;2.55;;;1.10;;
3677;SDS011;1855;50.934;6.958;2023-12-29T10:18:21;2.70;;;1.10;;
3677;SDS011;1855;50.934;6.958;2023-12-29T10:20:50;1.30;;;0.80;;
3677;SDS011;1855;50.934;6.958;2023-12-29T10:23:26;1.93;;;0.93;;
3677;SDS011;1855;50.934;6.958;2023-12-29T10:25:58;2.90;;;1.20;;
3677;SDS011;1855;50.934;6.958;2023-12-29T10:28:25;2.03;;;1.10;;
3677;SDS011;1855;50.934;6.958;2023-12-29T10:30:51;1.83;;;0.65;;
3677;SDS011;1855;50.934;6.958;2023-12-29T10:33:21;1.77;;;0.60;;
3677;SDS011;1855;50.934;6.958;2023-12-29T10:35:58;1.45;;;0.70;;
3677;SDS011;1855;50.934;6.958;2023-12-29T10:38:29;2.38;;;1.08;;
3677;SDS011;1855;50.934;6.958;2023-12-29T10:41:00;1.60;;;0.70;;
3677;SDS011;1855;50.934;6.958;2023-12-29T10:43:37;1.52;;;0.73;;
3677;SDS011;1855;50.934;6.958;2023-12-29T10:46:05;2.90;;;0.80;;
3677;SDS011;1855;50.934;6.958;2023-12-29T10:48:33;2.20;;;0.90;;
3677;SDS011;1855;50.934;6.958;2023-12-29T10:51:00;2.15;;;1.10;;
3677;SDS011;1855;50.934;6.958;2023-12-29T10:53:30;1.50;;;0.80;;
3677;SDS011;1855;50.934;6.958;2023-12-29T10:55:57;1.73;;;0.70;;
3677;SDS011;1855;50.934;6.958;2023-12-29T10:58:24;1.67;;;0.70;;
3677;SDS011;1855;50.934;6.958;2023-12-29T11:00:52;2.28;;;0.60;;
3677;SDS011;1855;50.934;6.958;2023-12-29T11:03:19;1.45;;;0.50;;
3677;SDS011;1855;50.934;6.958;2023-12-29T11:05:46;1.30;;;0.63;;
3677;SDS011;1855;50.934;6.958;2023-12-29T11:08:17;2.30;;;0.70;;
3677;SDS011;1855;50.934;6.958;2023-12-29T11:10:47;2.22;;;0.70;;
3677;SDS011;1855;50.934;6.958;2023-12-29T11:13:14;2.05;;;0.70;;
3677;SDS011;1855;50.934;6.958;2023-12-29T11:15:41;3.07;;;0.80;;
3677;SDS011;1855;50.934;6.958;2023-12-29T11:18:11;1.50;;;0.70;;
3677;SDS011;1855;50.934;6.958;2023-12-29T11:20:39;1.42;;;0.70;;
3677;SDS011;1855;50.934;6.958;2023-12-29T11:23:07;2.20;;;0.90;;
3677;SDS011;1855;50.934;6.958;2023-12-29T11:25:36;1.58;;;0.50;;
3677;SDS011;1855;50.934;6.958;2023-12-29T11:28:05;1.70;;;0.70;;
3677;SDS011;1855;50.934;6.958;2023-12-29T11:30:34;2.30;;;0.90;;
3677;SDS011;1855;50.934;6.958;2023-12-29T11:33:03;1.77;;;0.80;;
3677;SDS011;1855;50.934;6.958;2023-12-29T11:35:37;2.90;;;0.63;;
3677;SDS011;1855;50.934;6.958;2023-12-29T11:38:19;2.03;;;0.60;;
3677;SDS011;1855;50.934;6.958;2023-12-29T11:40:57;1.92;;;0.70;;
3677;SDS011;1855;50.934;6.958;2023-12-29T11:43:30;2.40;;;0.60;;
3677;SDS011;1855;50.934;6.958;2023-12-29T11:45:57;2.15;;;0.77;;
3677;SDS011;1855;50.934;6.958;2023-12-29T11:51:29;1.90;;;0.70;;
3677;SDS011;1855;50.934;6.958;2023-12-29T11:54:00;3.28;;;0.80;;
3677;SDS011;1855;50.934;6.958;2023-12-29T11:56:30;2.10;;;0.90;;
3677;SDS011;1855;50.934;6.958;2023-12-29T11:59:13;1.70;;;0.80;;
3677;SDS011;1855;50.934;6.958;2023-12-29T12:01:40;1.80;;;0.57;;
3677;SDS011;1855;50.934;6.958;2023-12-29T12:07:02;1.88;;;0.80;;
3677;SDS011;1855;50.934;6.958;2023-12-29T12:09:30;1.60;;;0.50;;
3677;SDS011;1855;50.934;6.958;2023-12-29T12:12:00;1.08;;;0.55;;
3677;SDS011;1855;50.934;6.958;2023-12-29T12:14:51;1.70;;;0.50;;
3677;SDS011;1855;50.934;6.958;2023-12-29T12:17:28;1.20;;;0.50;;
3677;SDS011;1855;50.934;6.958;2023-12-29T12:20:00;1.70;;;0.50;;
3677;SDS011;1855;50.934;6.958;2023-12-29T12:22:30;1.50;;;0.70;;
3677;SDS011;1855;50.934;6.958;2023-12-29T12:24:57;1.20;;;0.60;;
3677;SDS011;1855;50.934;6.958;2023-12-29T12:27:25;1.45;;;0.60;;
3677;SDS011;1855;50.934;6.958;2023-12-29T12:29:57;2.30;;;0.70;;
3677;SDS011;1855;50.934;6.958;2023-12-29T12:32:25;1.38;;;0.50;;
3677;SDS011;1855;50.934;6.958;2023-12-29T12:34:52;1.80;;;0.60;;
3677;SDS011;1855;50.934;6.958;2023-12-29T12:37:19;1.50;;;0.43;;
3677;SDS011;1855;50.934;6.958;2023-12-29T12:39:47;0.80;;;0.40;;
3677;SDS011;1855;50.934;6.958;2023-12-29T12:42:14;1.50;;;0.50;;
3677;SDS011;1855;50.934;6.958;2023-12-29T12:44:42;1.40;;;0.50;;
3677;SDS011;1855;50.934;6.958;2023-12-29T12:47:17;2.00;;;0.60;;
3677;SDS011;1855;50.934;6.958;2023-12-29T12:49:50;1.10;;;0.40;;
3677;SDS011;1855;50.934;6.958;2023-12-29T12:52:18;1.40;;;0.40;;
3677;SDS011;1855;50.934;6.958;2023-12-29T12:54:45;1.00;;;0.60;;
3677;SDS011;1855;50.934;6.958;2023-12-29T12:57:13;1.10;;;0.60;;
3677;SDS011;1855;50.934;6.958;2023-12-29T12:59:43;0.95;;;0.45;;
3677;SDS011;1855;50.934;6.958;2023-12-29T13:02:10;2.13;;;1.02;;
3677;SDS011;1855;50.934;6.958;2023-12-29T13:04:40;1.45;;;0.73;;
3677;SDS011;1855;50.934;6.958;2023-12-29T13:07:08;2.60;;;0.65;;
3677;SDS011;1855;50.934;6.958;2023-12-29T13:09:35;0.90;;;0.40;;
3677;SDS011;1855;50.934;6.958;2023-12-29T13:12:09;1.70;;;0.70;;
3677;SDS011;1855;50.934;6.958;2023-12-29T13:14:37;1.88;;;0.65;;
3677;SDS011;1855;50.934;6.958;2023-12-29T13:17:07;1.60;;;0.80;;
3677;SDS011;1855;50.934;6.958;2023-12-29T13:19:35;1.60;;;0.80;;
3677;SDS011;1855;50.934;6.958;2023-12-29T13:22:06;1.80;;;0.50;;
3677;SDS011;1855;50.934;6.958;2023-12-29T13:24:33;1.20;;;0.60;;
3677;SDS011;1855;50.934;6.958;2023-12-29T13:27:02;3.15;;;1.38;;
3677;SDS011;1855;50.934;6.958;2023-12-29T13:29:30;1.50;;;0.60;;
3677;SDS011;1855;50.934;6.958;2023-12-29T13:31:59;1.80;;;0.70;;
3677;SDS011;1855;50.934;6.958;2023-12-29T13:34:30;1.42;;;0.63;;
3677;SDS011;1855;50.934;6.958;2023-12-29T13:37:01;1.30;;;0.60;;
3677;SDS011;1855;50.934;6.958;2023-12-29T13:39:35;1.85;;;0.80;;
3677;SDS011;1855;50.934;6.958;2023-12-29T13:42:05;1.73;;;0.60;;
3677;SDS011;1855;50.934;6.958;2023-12-29T13:44:37;1.80;;;0.75;;
3677;SDS011;1855;50.934;6.958;2023-12-29T13:47:05;1.50;;;0.60;;
3677;SDS011;1855;50.934;6.958;2023-12-29T13:49:33;1.90;;;0.60;;
3677;SDS011;1855;50.934;6.958;2023-12-29T13:52:01;1.80;;;0.70;;
3677;SDS011;1855;50.934;6.958;2023-12-29T13:54:29;1.50;;;0.50;;
3677;SDS011;1855;50.934;6.958;2023-12-29T13:56:57;1.88;;;0.90;;
3677;SDS011;1855;50.934;6.958;2023-12-29T13:59:30;1.27;;;0.57;;
3677;SDS011;1855;50.934;6.958;2023-12-29T14:01:58;1.20;;;0.40;;
3677;SDS011;1855;50.934;6.958;2023-12-29T14:04:25;2.60;;;0.60;;
3677;SDS011;1855;50.934;6.958;2023-12-29T14:06:53;1.58;;;0.55;;
3677;SDS011;1855;50.934;6.958;2023-12-29T14:09:27;1.50;;;0.50;;
3677;SDS011;1855;50.934;6.958;2023-12-29T14:11:54;1.70;;;0.50;;
3677;SDS011;1855;50.934;6.958;2023-12-29T14:14:23;1.08;;;0.50;;
3677;SDS011;1855;50.934;6.958;2023-12-29T14:16:50;1.15;;;0.50;;
3677;SDS011;1855;50.934;6.958;2023-12-29T14:19:18;1.10;;;0.50;;
3677;SDS011;1855;50.934;6.958;2023-12-29T14:21:44;2.60;;;0.80;;
3677;SDS011;1855;50.934;6.958;2023-12-29T14:24:15;1.90;;;0.70;;
3677;SDS011;1855;50.934;6.958;2023-12-29T14:26:42;1.85;;;0.80;;
3677;SDS011;1855;50.934;6.958;2023-12-29T14:29:22;1.73;;;0.73;;
3677;SDS011;1855;50.934;6.958;2023-12-29T14:31:49;1.98;;;0.70;;
3677;SDS011;1855;50.934;6.958;2023-12-29T14:34:17;1.30;;;0.60;;
3677;SDS011;1855;50.934;6.958;2023-12-29T14:36:44;2.00;;;0.80;;
3677;SDS011;1855;50.934;6.958;2023-12-29T14:39:11;2.75;;;0.90;;
3677;SDS011;1855;50.934;6.958;2023-12-29T14:41:38;1.60;;;0.70;;
3677;SDS011;1855;50.934;6.958;2023-12-29T14:44:05;1.58;;;0.70;;
3677;SDS011;1855;50.934;6.958;2023-12-29T14:46:33;3.50;;;0.85;;
3677;SDS011;1855;50.934;6.958;2023-12-29T14:49:01;1.60;;;0.60;;
3677;SDS011;1855;50.934;6.958;2023-12-29T14:51:28;1.45;;;0.70;;
3677;SDS011;1855;50.934;6.958;2023-12-29T14:53:55;2.65;;;0.93;;
3677;SDS011;1855;50.934;6.958;2023-12-29T14:56:22;1.80;;;1.00;;
3677;SDS011;1855;50.934;6.958;2023-12-29T14:58:48;2.33;;;0.90;;
3677;SDS011;1855;50.934;6.958;2023-12-29T15:01:16;1.65;;;0.90;;
3677;SDS011;1855;50.934;6.958;2023-12-29T15:03:44;2.70;;;1.30;;
3677;SDS011;1855;50.934;6.958;2023-12-29T15:06:11;2.72;;;0.80;;
3677;SDS011;1855;50.934;6.958;2023-12-29T15:08:38;1.50;;;0.90;;
3677;SDS011;1855;50.934;6.958;2023-12-29T15:11:05;2.80;;;0.90;;
3677;SDS011;1855;50.934;6.958;2023-12-29T15:13:33;1.87;;;0.90;;
3677;SDS011;1855;50.934;6.958;2023-12-29T15:16:00;3.00;;;1.50;;
3677;SDS011;1855;50.934;6.958;2023-12-29T15:18:29;2.53;;;0.90;;
3677;SDS011;1855;50.934;6.958;2023-12-29T15:20:57;1.70;;;1.40;;
3677;SDS011;1855;50.934;6.958;2023-12-29T15:23:24;1.85;;;0.90;;
3677;SDS011;1855;50.934;6.958;2023-12-29T15:25:52;2.13;;;0.90;;